This is the latest recevied weather packets stored in our database for station/object DH4SBM. If no packets are shown the sender has not sent any weather packets the latest 10 day(s).
| Time | Temp. | Humidity | Pressure | Rain* | Wind** | Luminosity | Snow |
|---|---|---|---|---|---|---|---|
| 1777703137 | 12.22° C | 68% | 1024.5 hPa | 0 mm | - | 262 W/m² | - |
| 1777702537 | 11.67° C | 69% | 1024.5 hPa | 0 mm | - | 37 W/m² | - |
| 1777701937 | 11.11° C | 69% | 1024.5 hPa | 0 mm | - | 309 W/m² | - |
| 1777701336 | 10.56° C | 70% | 1024.5 hPa | 0 mm | - | 279 W/m² | - |
| 1777700736 | 10.56° C | 70% | 1024.3 hPa | 0 mm | - | 255 W/m² | - |
| 1777700136 | 10.56° C | 69% | 1024.4 hPa | 0 mm | - | 223 W/m² | - |
| 1777699536 | 10.56° C | 68% | 1024.5 hPa | 0 mm | - | 195 W/m² | - |
| 1777698936 | 10.56° C | 68% | 1024.5 hPa | 0 mm | - | 171 W/m² | - |
| 1777698336 | 10° C | 69% | 1024.5 hPa | 0 mm | - | 142 W/m² | - |
| 1777697736 | 8.89° C | 73% | 1024.6 hPa | 0 mm | - | 116 W/m² | - |
| 1777697136 | 7.78° C | 75% | 1024.6 hPa | 0 mm | - | 93 W/m² | - |
| 1777696536 | 7.78° C | 74% | 1024.5 hPa | 0 mm | - | 69 W/m² | - |
| 1777695936 | 7.78° C | 74% | 1024.5 hPa | 0 mm | - | 14 W/m² | - |
| 1777695336 | 7.78° C | 73% | 1024.4 hPa | 0 mm | - | 9 W/m² | - |
| 1777694736 | 8.33° C | 72% | 1024.3 hPa | 0 mm | - | 5 W/m² | - |
| 1777694136 | 8.89° C | 70% | 1024.3 hPa | 0 mm | - | 0 W/m² | - |
| 1777693536 | 8.89° C | 69% | 1024.3 hPa | 0 mm | - | 0 W/m² | - |
| 1777692936 | 8.89° C | 70% | 1024 hPa | 0 mm | - | 0 W/m² | - |
| 1777692336 | 8.33° C | 71% | 1024.1 hPa | 0 mm | - | 0 W/m² | - |
| 1777691736 | 8.33° C | 71% | 1024.1 hPa | 0 mm | - | 0 W/m² | - |
| 1777691136 | 8.33° C | 71% | 1024.1 hPa | 0 mm | - | 0 W/m² | - |
| 1777690536 | 8.89° C | 69% | 1024.3 hPa | 0 mm | - | 0 W/m² | - |
| 1777689936 | 9.44° C | 66% | 1024.3 hPa | 0 mm | - | 0 W/m² | - |
| 1777689336 | 11.11° C | 61% | 1024.5 hPa | 0 mm | - | 0 W/m² | - |
| 1777688736 | 11.67° C | 58% | 1024.6 hPa | 0 mm | - | 0 W/m² | - |
* Rain latest hour (hover to see other rain measurements)
** Current wind speed in m/s (hover to see current wind gust speed)